Time;durP1;ratioP1;P1;durP2;ratioP2;P2;SDS_P1;SDS_P2;PMS_P1;PMS_P2;Temp;Humidity;BMP_temperature;BMP_pressure;BME280_temperature;BME280_humidity;BME280_pressure;Samples;Min_cycle;Max_cycle;Signal;HPM_P1;HPM_P2
2022/10/30 00:02:24;;;;;;;;;13.67;12.00;;;;;18.41;57.68;101125.41;4994929;28;45556;-74
2022/10/30 00:04:49;;;;;;;;;17.67;10.00;;;;;19.08;57.58;101238.47;4978534;28;50397;-73
2022/10/30 00:07:14;;;;;;;;;14.67;11.67;;;;;19.03;57.38;101230.13;4978171;28;45227;-75
2022/10/30 00:09:40;;;;;;;;;9.33;9.33;;;;;18.06;57.45;101083.94;4977960;28;46212;-73
2022/10/30 00:12:05;;;;;;;;;15.00;13.67;;;;;18.92;57.92;101230.59;4978213;28;45330;-73
2022/10/30 00:14:30;;;;;;;;;18.33;14.33;;;;;19.05;57.87;101257.72;4993328;28;48664;-72
2022/10/30 00:16:56;;;;;;;;;17.00;13.33;;;;;18.99;58.07;101236.06;4977952;28;45361;-71
2022/10/30 00:19:21;;;;;;;;;12.00;11.33;;;;;18.94;57.91;101220.44;4993345;28;45313;-72
2022/10/30 00:21:46;;;;;;;;;15.33;13.33;;;;;18.85;58.37;101218.91;4977161;28;45572;-72
2022/10/30 00:24:12;;;;;;;;;15.33;13.67;;;;;18.65;58.44;101180.91;4978066;28;45639;-74
2022/10/30 00:26:37;;;;;;;;;16.00;16.00;;;;;18.65;58.65;101180.06;4978336;28;45281;-72
2022/10/30 00:29:02;;;;;;;;;25.00;19.00;;;;;18.60;59.34;101198.59;4977871;28;45323;-72
2022/10/30 00:31:28;;;;;;;;;21.33;17.00;;;;;18.63;59.22;101214.44;4978055;28;45635;-73
2022/10/30 00:33:54;;;;;;;;;18.00;15.67;;;;;18.67;59.94;101211.19;4977492;28;46476;-74
2022/10/30 00:36:20;;;;;;;;;21.67;18.67;;;;;18.35;60.36;101182.72;4977445;28;45454;-73
2022/10/30 00:38:45;;;;;;;;;22.67;18.67;;;;;18.63;60.36;101225.22;4977796;28;45522;-74
2022/10/30 00:41:15;;;;;;;;;19.00;16.00;;;;;18.61;60.73;101228.03;4993028;28;45460;-73
2022/10/30 00:43:41;;;;;;;;;18.67;13.33;;;;;18.42;60.41;101197.13;4977609;28;46295;-71
2022/10/30 00:46:32;;;;;;;;;24.67;18.00;;;;;18.29;60.37;101166.47;4977729;28;45388;-74
2022/10/30 00:49:04;;;;;;;;;18.67;15.67;;;;;18.27;60.51;101163.97;4991944;28;45420;-73
2022/10/30 00:51:32;;;;;;;;;20.33;16.33;;;;;18.55;60.55;101218.00;4976223;28;45525;-73
2022/10/30 00:53:59;;;;;;;;;16.33;14.67;;;;;18.58;60.58;101231.09;4977282;28;46464;-73
2022/10/30 00:56:25;;;;;;;;;22.67;20.67;;;;;18.31;60.10;101189.47;4993007;28;45554;-73
2022/10/30 00:59:10;;;;;;;;;20.67;18.67;;;;;18.36;60.53;101207.75;4977431;28;45647;-75
2022/10/30 01:01:42;;;;;;;;;18.67;14.33;;;;;18.56;60.49;101230.44;4977428;28;45389;-71
2022/10/30 01:04:07;;;;;;;;;13.00;11.33;;;;;17.91;59.88;101126.97;4977157;28;46853;-75
2022/10/30 01:06:36;;;;;;;;;14.67;13.00;;;;;18.60;59.71;101239.00;4976888;28;45310;-74
2022/10/30 01:09:02;;;;;;;;;13.33;12.33;;;;;18.27;60.04;101188.19;4977086;28;45316;-71
2022/10/30 01:11:28;;;;;;;;;14.33;14.33;;;;;18.61;60.01;101254.13;4977026;28;45380;-71
2022/10/30 01:13:56;;;;;;;;;17.33;13.00;;;;;18.50;59.92;101241.97;4991933;28;47524;-71
2022/10/30 01:16:40;;;;;;;;;15.67;12.67;;;;;18.57;60.01;101260.91;4977097;28;45372;-74
2022/10/30 01:19:42;;;;;;;;;18.67;16.33;;;;;18.55;60.16;101250.31;4977040;28;45647;-73
2022/10/30 01:22:20;;;;;;;;;16.67;12.67;;;;;18.44;60.13;101240.84;4975860;28;45285;-72
2022/10/30 01:24:51;;;;;;;;;13.67;12.00;;;;;18.50;60.38;101258.94;4975501;28;47333;-70
2022/10/30 01:27:38;;;;;;;;;19.33;16.00;;;;;18.50;60.33;101267.03;4975186;28;45350;-72
2022/10/30 01:30:25;;;;;;;;;19.67;13.33;;;;;18.46;60.36;101252.25;4977111;28;45267;-72
2022/10/30 01:33:01;;;;;;;;;20.67;15.00;;;;;18.21;60.52;101213.94;4977007;28;45182;-72
2022/10/30 01:35:33;;;;;;;;;17.67;14.33;;;;;18.13;60.28;101208.66;4976767;28;46528;-71
2022/10/30 01:38:17;;;;;;;;;16.00;13.67;;;;;18.34;60.36;101253.72;4975165;28;45682;-72
2022/10/30 01:40:44;;;;;;;;;18.33;15.67;;;;;18.18;60.71;101235.00;4976638;28;45425;-74
2022/10/30 01:43:10;;;;;;;;;14.67;14.67;;;;;18.30;60.62;101259.66;4977111;28;45371;-72
2022/10/30 01:45:53;;;;;;;;;12.00;10.00;;;;;18.27;61.03;101252.78;4975542;28;45663;-72
2022/10/30 01:48:40;;;;;;;;;13.33;12.33;;;;;18.26;60.91;101244.88;4980025;28;45540;-71
2022/10/30 01:51:28;;;;;;;;;14.33;14.00;;;;;17.82;60.96;101187.25;4979839;28;45320;-74
2022/10/30 01:54:22;;;;;;;;;14.33;13.33;;;;;18.24;60.98;101243.22;4980010;28;45384;-72
2022/10/30 01:57:15;;;;;;;;;17.33;13.00;;;;;18.28;60.79;101253.63;4979619;28;46383;-73
2022/10/30 01:59:48;;;;;;;;;13.33;12.67;;;;;18.26;60.93;101240.34;4976965;28;45436;-72
2022/10/30 02:02:14;;;;;;;;;13.00;13.00;;;;;18.00;61.10;101202.22;4978830;28;45421;-73
2022/10/30 02:04:40;;;;;;;;;14.33;14.00;;;;;18.20;60.92;101230.28;4980061;28;45256;-74
2022/10/30 02:07:06;;;;;;;;;13.00;11.33;;;;;18.18;61.13;101229.63;4979606;28;46678;-75
2022/10/30 02:09:31;;;;;;;;;12.33;11.33;;;;;18.14;61.13;101212.19;4979870;28;45523;-73
2022/10/30 02:11:58;;;;;;;;;13.33;13.33;;;;;17.53;61.15;101109.94;4979918;28;45318;-75
2022/10/30 02:14:30;;;;;;;;;14.33;13.67;;;;;18.21;60.98;101231.97;4980342;28;45337;-73
2022/10/30 02:16:57;;;;;;;;;17.67;16.67;;;;;18.23;61.07;101230.78;4979892;28;46753;-72
2022/10/30 02:19:23;;;;;;;;;17.33;13.33;;;;;17.99;61.03;101181.69;4979421;28;45304;-73
2022/10/30 02:21:49;;;;;;;;;14.00;11.67;;;;;18.25;60.88;101211.75;4979886;28;45322;-71
2022/10/30 02:24:14;;;;;;;;;16.67;10.67;;;;;18.23;60.89;101214.63;4994670;28;45524;-73
2022/10/30 02:26:40;;;;;;;;;13.00;10.33;;;;;18.16;60.79;101207.44;4979575;28;46438;-74
2022/10/30 02:29:05;;;;;;;;;16.33;13.67;;;;;17.61;60.95;101117.09;4979460;28;45515;-75
2022/10/30 02:31:30;;;;;;;;;14.00;12.00;;;;;18.06;60.88;101193.44;4979604;28;45219;-71
2022/10/30 02:33:56;;;;;;;;;13.67;11.67;;;;;18.22;60.72;101218.34;4979865;28;45488;-75
2022/10/30 02:36:21;;;;;;;;;15.33;12.00;;;;;18.08;60.87;101186.84;4979224;28;46375;-74
2022/10/30 02:38:46;;;;;;;;;12.33;12.33;;;;;18.23;61.03;101208.41;4978933;28;46505;-72
2022/10/30 02:41:12;;;;;;;;;11.00;11.00;;;;;18.10;61.13;101187.50;4979444;28;45409;-73
2022/10/30 02:43:37;;;;;;;;;14.00;13.00;;;;;18.02;61.06;101174.13;4977925;28;45204;-72
2022/10/30 02:46:04;;;;;;;;;17.33;17.33;;;;;18.02;60.96;101175.94;4979114;28;45457;-72
2022/10/30 02:48:30;;;;;;;;;17.33;14.33;;;;;17.94;60.99;101158.03;4979425;28;45567;-73
2022/10/30 02:51:04;;;;;;;;;19.00;16.00;;;;;18.29;60.98;101207.66;4979658;28;45187;-74
2022/10/30 02:53:30;;;;;;;;;13.67;12.33;;;;;17.92;60.96;101147.47;4979047;28;45256;-72
2022/10/30 02:55:55;;;;;;;;;14.33;13.33;;;;;17.85;61.11;101135.78;4977436;28;47476;-72
2022/10/30 02:58:21;;;;;;;;;15.33;12.33;;;;;18.03;61.09;101164.22;4977875;28;45280;-71
2022/10/30 03:00:46;;;;;;;;;17.67;13.33;;;;;18.08;60.88;101189.53;4995045;28;45417;-72
2022/10/30 03:03:12;;;;;;;;;17.33;13.33;;;;;17.80;60.63;101143.53;4979443;28;52816;-72
2022/10/30 03:05:37;;;;;;;;;16.67;13.33;;;;;17.90;60.52;101144.13;4993874;28;47412;-72
2022/10/30 03:08:02;;;;;;;;;15.00;15.00;;;;;18.05;60.92;101170.25;4978815;28;45380;-75
2022/10/30 03:10:29;;;;;;;;;10.67;10.67;;;;;17.55;61.16;101101.72;4978943;28;45463;-73
2022/10/30 03:12:54;;;;;;;;;17.00;13.33;;;;;17.78;61.02;101142.88;4993939;28;45505;-72
2022/10/30 03:15:19;;;;;;;;;13.67;13.67;;;;;17.79;61.97;101168.75;4978580;28;46541;-72
2022/10/30 03:17:45;;;;;;;;;16.67;14.33;;;;;18.10;61.73;101211.72;4978634;28;45421;-72
2022/10/30 03:20:11;;;;;;;;;12.67;12.67;;;;;18.08;61.62;101200.31;4978920;28;45525;-72
2022/10/30 03:22:36;;;;;;;;;12.67;12.00;;;;;17.73;61.97;101142.59;4979161;28;45432;-74
2022/10/30 03:25:02;;;;;;;;;16.00;16.00;;;;;17.92;62.34;101182.44;4977184;28;49127;-71
2022/10/30 03:27:27;;;;;;;;;14.33;14.33;;;;;17.99;62.58;101222.06;4978121;28;45223;-73
2022/10/30 03:29:53;;;;;;;;;14.00;13.00;;;;;17.92;62.86;101195.06;4978515;28;45523;-74
2022/10/30 03:32:18;;;;;;;;;19.33;18.33;;;;;17.35;62.94;101098.66;4978583;28;45299;-72
2022/10/30 03:34:44;;;;;;;;;13.67;13.67;;;;;17.61;62.92;101141.31;4978279;28;45920;-72
2022/10/30 03:37:09;;;;;;;;;16.33;15.33;;;;;17.85;62.88;101181.50;4978273;28;45285;-74
2022/10/30 03:39:34;;;;;;;;;17.00;16.33;;;;;17.82;63.01;101211.47;4978035;28;45265;-75
2022/10/30 03:42:00;;;;;;;;;23.33;17.33;;;;;17.36;62.87;101126.38;4978088;28;45299;-73
2022/10/30 03:44:25;;;;;;;;;20.67;18.00;;;;;17.73;62.90;101180.25;4976761;28;47114;-74
2022/10/30 03:46:50;;;;;;;;;15.33;14.33;;;;;17.55;63.44;101163.53;4977964;28;45310;-73
2022/10/30 03:49:15;;;;;;;;;14.67;13.33;;;;;17.48;63.22;101143.78;4977956;28;56073;-73
2022/10/30 03:51:41;;;;;;;;;17.00;14.00;;;;;17.58;63.51;101176.63;4979122;28;45499;-73
2022/10/30 03:54:06;;;;;;;;;16.00;14.00;;;;;17.55;63.79;101177.81;4978298;28;46616;-72
2022/10/30 03:56:31;;;;;;;;;16.00;14.00;;;;;17.55;63.51;101179.66;4978304;28;45499;-71
2022/10/30 03:58:57;;;;;;;;;14.67;12.33;;;;;17.48;63.23;101171.50;4978268;28;45281;-73
2022/10/30 04:01:22;;;;;;;;;15.00;12.67;;;;;17.32;63.47;101144.72;4977776;28;50069;-72
2022/10/30 04:03:47;;;;;;;;;19.33;15.67;;;;;17.50;63.57;101172.16;4978214;28;46321;-72
2022/10/30 04:06:13;;;;;;;;;19.33;14.00;;;;;17.55;63.72;101176.97;4977887;28;45504;-74
2022/10/30 04:08:38;;;;;;;;;16.00;14.33;;;;;17.53;63.61;101184.38;4977751;28;45625;-71
2022/10/30 04:11:03;;;;;;;;;15.00;13.00;;;;;17.34;63.47;101142.69;4978042;28;45646;-75
2022/10/30 04:13:29;;;;;;;;;14.00;14.00;;;;;17.48;63.35;101173.34;4977747;28;46473;-74
2022/10/30 04:15:54;;;;;;;;;8.33;6.67;;;;;16.86;63.78;101085.56;4992752;28;45449;-74
2022/10/30 04:18:19;;;;;;;;;19.67;15.00;;;;;17.22;63.87;101141.41;4977797;28;45404;-73
2022/10/30 04:20:45;;;;;;;;;10.33;9.67;;;;;17.45;63.74;101171.03;4977856;28;45448;-71
2022/10/30 04:23:16;;;;;;;;;12.00;11.00;;;;;17.42;63.76;101180.28;4977622;28;46458;-74
2022/10/30 04:25:42;;;;;;;;;17.67;13.67;;;;;17.38;64.29;101170.03;4992848;28;46354;-74
2022/10/30 04:28:07;;;;;;;;;17.67;17.67;;;;;17.34;64.37;101167.72;4977863;28;45522;-74
2022/10/30 04:30:34;;;;;;;;;17.33;17.33;;;;;17.14;64.52;101134.25;4978250;28;45290;-73
2022/10/30 04:33:01;;;;;;;;;20.00;18.00;;;;;17.17;65.08;101144.63;4992622;28;47363;-72
2022/10/30 04:35:29;;;;;;;;;18.67;16.67;;;;;17.05;65.33;101126.44;4977231;28;45484;-72
2022/10/30 04:37:59;;;;;;;;;20.00;17.67;;;;;16.81;65.46;101098.66;4977366;28;45254;-72
2022/10/30 04:40:27;;;;;;;;;19.00;17.67;;;;;17.05;65.70;101156.81;4976150;28;45604;-72
2022/10/30 04:42:52;;;;;;;;;16.67;14.33;;;;;16.88;65.95;101114.94;4977135;28;46768;-72
2022/10/30 04:45:18;;;;;;;;;16.67;15.33;;;;;16.83;65.50;101111.94;4977134;28;45322;-73
2022/10/30 04:47:44;;;;;;;;;17.33;16.33;;;;;16.93;66.09;101148.31;4977530;28;45180;-71
2022/10/30 04:50:09;;;;;;;;;17.67;15.67;;;;;16.58;65.98;101084.31;4992914;28;45271;-72
2022/10/30 04:52:35;;;;;;;;;9.67;8.67;;;;;16.99;65.92;101160.19;4977302;28;45289;-71
2022/10/30 04:55:01;;;;;;;;;17.33;13.67;;;;;16.89;66.12;101135.41;4977349;28;45215;-73
2022/10/30 04:57:26;;;;;;;;;13.33;13.33;;;;;16.76;66.19;101127.06;4977236;28;45424;-73
2022/10/30 04:59:52;;;;;;;;;19.67;16.00;;;;;16.66;66.11;101112.03;4977270;28;45596;-74
2022/10/30 05:02:20;;;;;;;;;19.67;18.00;;;;;16.76;66.24;101117.16;4976926;28;45551;-72
2022/10/30 05:04:45;;;;;;;;;17.00;15.00;;;;;16.85;65.85;101128.72;4977296;28;45405;-73
2022/10/30 05:07:12;;;;;;;;;17.33;16.00;;;;;16.85;65.62;101132.25;4976878;28;45358;-74
2022/10/30 05:09:37;;;;;;;;;14.67;14.00;;;;;16.41;65.74;101054.88;4976156;28;45480;-71
2022/10/30 05:12:03;;;;;;;;;14.33;9.33;;;;;16.84;65.95;101129.72;4977532;28;46226;-71
2022/10/30 05:14:32;;;;;;;;;17.67;12.33;;;;;16.80;65.58;101144.50;4992157;28;45465;-72
2022/10/30 05:16:58;;;;;;;;;16.00;14.00;;;;;16.45;65.71;101076.00;4977956;28;45463;-73
2022/10/30 05:19:23;;;;;;;;;14.33;14.33;;;;;16.89;66.13;101151.53;4977266;28;46129;-72
2022/10/30 05:21:48;;;;;;;;;11.67;11.67;;;;;16.65;66.05;101118.38;4979300;28;46083;-72
2022/10/30 05:24:14;;;;;;;;;12.67;12.00;;;;;16.59;66.12;101110.16;4980345;28;45508;-72
2022/10/30 05:26:39;;;;;;;;;12.67;12.67;;;;;16.54;66.47;101091.06;4980510;28;45507;-73
2022/10/30 05:29:05;;;;;;;;;16.67;14.67;;;;;16.92;65.88;101153.84;4995985;28;45593;-71
2022/10/30 05:31:30;;;;;;;;;18.33;14.67;;;;;16.92;66.07;101143.09;4995270;28;47333;-71
2022/10/30 05:33:56;;;;;;;;;15.67;12.00;;;;;16.32;65.82;101044.34;4979379;28;45921;-72
2022/10/30 05:36:21;;;;;;;;;11.00;11.00;;;;;16.78;65.99;101104.41;4980589;28;45543;-73
2022/10/30 05:38:47;;;;;;;;;16.00;13.33;;;;;16.64;65.93;101071.06;4980654;28;45487;-71
2022/10/30 05:41:12;;;;;;;;;12.67;12.67;;;;;16.83;65.62;101094.00;4979912;28;45585;-73
2022/10/30 05:43:38;;;;;;;;;14.33;12.00;;;;;16.70;65.65;101077.59;4978562;28;46492;-73
2022/10/30 05:46:03;;;;;;;;;16.67;12.00;;;;;17.03;65.55;101140.03;4995120;28;45453;-73
2022/10/30 05:48:28;;;;;;;;;11.00;10.33;;;;;16.65;65.73;101077.25;4980434;28;45610;-73
2022/10/30 05:50:57;;;;;;;;;13.67;12.00;;;;;17.09;65.82;101155.44;4980057;28;45536;-72
2022/10/30 05:53:23;;;;;;;;;15.33;13.33;;;;;17.07;65.71;101151.25;4980034;28;45390;-74
2022/10/30 05:55:48;;;;;;;;;5.33;4.67;;;;;16.37;65.41;101032.09;4980238;28;45436;-72
2022/10/30 05:58:14;;;;;;;;;14.33;12.67;;;;;16.76;65.96;101089.47;4980019;28;45491;-73
2022/10/30 06:00:41;;;;;;;;;11.67;10.33;;;;;17.11;65.35;101141.84;4979906;28;46419;-73
2022/10/30 06:03:10;;;;;;;;;15.67;15.67;;;;;17.09;65.76;101122.38;4979841;28;45595;-73
2022/10/30 06:05:37;;;;;;;;;10.67;9.33;;;;;16.99;65.30;101109.97;4979775;28;45231;-71
2022/10/30 06:08:03;;;;;;;;;10.00;10.00;;;;;17.03;65.45;101140.88;4979733;28;45588;-72
2022/10/30 06:10:29;;;;;;;;;14.00;12.00;;;;;16.27;65.43;101001.97;4979404;28;47146;-73
2022/10/30 06:12:56;;;;;;;;;16.00;11.00;;;;;16.79;65.68;101099.84;4978221;28;46435;-73
2022/10/30 06:15:22;;;;;;;;;13.00;11.00;;;;;17.09;65.49;101136.63;4979417;28;45275;-73
2022/10/30 06:17:48;;;;;;;;;11.00;10.67;;;;;17.07;66.04;101129.78;4980059;28;45421;-73
2022/10/30 06:20:14;;;;;;;;;16.33;13.67;;;;;17.03;65.89;101121.25;4979486;28;46641;-71
2022/10/30 06:22:40;;;;;;;;;11.67;11.67;;;;;17.19;65.63;101139.09;4979686;28;45303;-72
2022/10/30 06:25:05;;;;;;;;;12.00;11.00;;;;;17.06;65.57;101107.44;4979606;28;45490;-72
2022/10/30 06:27:33;;;;;;;;;15.00;13.67;;;;;17.14;65.30;101130.72;4994907;28;45616;-73
2022/10/30 06:29:59;;;;;;;;;12.00;10.33;;;;;16.90;65.19;101086.06;4978927;28;47266;-71
2022/10/30 06:32:24;;;;;;;;;15.33;13.33;;;;;17.19;65.37;101137.22;4978311;28;45516;-74
2022/10/30 06:34:49;;;;;;;;;14.00;12.33;;;;;17.24;65.29;101145.63;4977809;28;51016;-71
2022/10/30 06:37:15;;;;;;;;;12.33;12.33;;;;;17.15;65.17;101132.41;4979440;28;46830;-73
2022/10/30 06:39:40;;;;;;;;;14.00;12.33;;;;;17.05;64.96;101127.25;4979149;28;54972;-71
2022/10/30 06:42:05;;;;;;;;;12.33;10.67;;;;;17.16;64.99;101148.34;4979485;28;45293;-71
2022/10/30 06:44:31;;;;;;;;;16.33;15.33;;;;;17.08;65.40;101143.03;4979383;28;45553;-72
2022/10/30 06:46:56;;;;;;;;;14.67;12.33;;;;;17.11;65.40;101158.78;4979536;28;45558;-72
2022/10/30 06:49:21;;;;;;;;;15.67;15.00;;;;;16.57;65.45;101070.06;4978974;28;48190;-72
2022/10/30 06:51:49;;;;;;;;;14.33;11.00;;;;;16.98;65.73;101147.75;4979105;28;45374;-72
2022/10/30 06:54:14;;;;;;;;;15.67;12.33;;;;;17.12;65.67;101159.63;4979034;28;45266;-72
2022/10/30 06:56:40;;;;;;;;;12.67;12.67;;;;;16.98;64.75;101123.59;4994584;28;45556;-71
2022/10/30 06:59:06;;;;;;;;;19.67;17.67;;;;;17.19;65.04;101169.47;4977463;28;48402;-73
2022/10/30 07:01:31;;;;;;;;;13.33;13.33;;;;;17.17;65.16;101159.91;4977588;28;45855;-70
2022/10/30 07:03:57;;;;;;;;;11.00;10.67;;;;;16.78;65.01;101099.03;4978691;28;49629;-71
2022/10/30 07:06:22;;;;;;;;;11.00;10.33;;;;;16.93;64.99;101134.88;4978153;28;58565;-72
2022/10/30 07:08:47;;;;;;;;;12.33;11.33;;;;;17.13;64.96;101162.13;4979048;28;45799;-75
2022/10/30 07:11:13;;;;;;;;;14.00;12.33;;;;;16.35;65.06;101006.44;4978606;28;59309;-72
2022/10/30 07:13:38;;;;;;;;;15.00;11.33;;;;;17.16;64.70;101140.28;4979004;28;45370;-72
2022/10/30 07:16:04;;;;;;;;;12.67;10.67;;;;;16.86;64.69;101092.78;4978077;28;45453;-73
2022/10/30 07:18:29;;;;;;;;;8.00;6.67;;;;;17.24;64.95;101152.84;4978784;28;45397;-71
2022/10/30 07:20:55;;;;;;;;;15.67;15.67;;;;;16.73;64.70;101072.72;4978812;28;45398;-72
2022/10/30 07:23:21;;;;;;;;;8.67;8.33;;;;;16.81;64.64;101081.72;4978805;28;45406;-71
2022/10/30 07:25:46;;;;;;;;;15.00;11.33;;;;;17.26;64.84;101134.69;4978949;28;45283;-70
2022/10/30 07:28:12;;;;;;;;;12.00;11.33;;;;;17.25;64.30;101123.09;4978743;28;45840;-69
2022/10/30 07:30:37;;;;;;;;;13.33;12.33;;;;;17.37;64.78;101146.88;4978589;28;45269;-71
2022/10/30 07:33:05;;;;;;;;;15.67;14.67;;;;;17.29;64.45;101134.34;4978699;28;45797;-70
2022/10/30 07:35:33;;;;;;;;;18.67;13.67;;;;;16.77;64.60;101058.94;4993546;28;45251;-69
2022/10/30 07:38:08;;;;;;;;;16.33;14.00;;;;;17.30;64.73;101150.28;4976877;28;48109;-69
2022/10/30 07:40:34;;;;;;;;;18.33;13.33;;;;;17.40;64.25;101143.81;4978389;28;45361;-69
2022/10/30 07:43:01;;;;;;;;;14.33;13.33;;;;;17.51;64.29;101152.31;4979414;28;45296;-70
2022/10/30 07:45:27;;;;;;;;;10.00;9.67;;;;;15.99;63.57;100894.28;4978392;28;45394;-70
2022/10/30 07:47:52;;;;;;;;;16.33;15.00;;;;;16.93;63.52;101032.81;4978046;28;46257;-71
2022/10/30 07:50:18;;;;;;;;;12.33;11.33;;;;;17.67;63.86;101159.44;4977811;28;45501;-70
2022/10/30 07:52:44;;;;;;;;;15.33;13.67;;;;;17.41;63.08;101105.16;4980180;28;45477;-70
2022/10/30 07:55:15;;;;;;;;;16.67;16.67;;;;;17.78;63.11;101140.19;4979162;28;45238;-70
2022/10/30 07:57:41;;;;;;;;;16.67;12.67;;;;;17.80;62.78;101158.84;4977738;28;47340;-72
2022/10/30 08:00:12;;;;;;;;;13.67;12.67;;;;;17.55;62.58;101109.78;4977878;28;45452;-71
2022/10/30 08:02:37;;;;;;;;;12.33;11.33;;;;;17.71;62.58;101119.59;4978206;28;45505;-72
2022/10/30 08:05:07;;;;;;;;;16.33;13.33;;;;;17.69;62.01;101111.72;4976950;28;45571;-78
2022/10/30 08:07:38;;;;;;;;;18.67;14.33;;;;;17.50;62.22;101085.28;4973525;28;46562;-73
2022/10/30 08:10:04;;;;;;;;;15.00;12.33;;;;;18.11;61.62;101181.09;4983372;28;45491;-74
2022/10/30 08:12:33;;;;;;;;;14.67;13.33;;;;;18.20;62.13;101182.69;4960522;28;45404;-73
2022/10/30 08:14:59;;;;;;;;;17.33;13.67;;;;;18.26;61.49;101170.38;4966844;28;45626;-71
2022/10/30 08:17:24;;;;;;;;;13.33;13.33;;;;;18.43;61.08;101190.72;4977041;28;46592;-73
2022/10/30 08:19:50;;;;;;;;;13.33;12.00;;;;;18.10;60.70;101128.31;4992341;28;45616;-73
2022/10/30 08:22:15;;;;;;;;;15.00;11.33;;;;;18.48;61.56;101196.38;4977532;28;45275;-71
2022/10/30 08:24:41;;;;;;;;;12.67;10.67;;;;;18.69;59.90;101213.69;4976308;28;45381;-72
2022/10/30 08:27:07;;;;;;;;;12.67;10.33;;;;;18.79;59.46;101215.06;4976724;28;45800;-72
2022/10/30 08:29:33;;;;;;;;;13.33;13.33;;;;;19.02;58.89;101225.75;4976581;28;45496;-71
2022/10/30 08:31:59;;;;;;;;;14.00;13.67;;;;;18.71;58.60;101161.31;4978441;28;45484;-72
2022/10/30 08:34:26;;;;;;;;;11.67;9.33;;;;;18.59;58.08;101121.53;4979308;28;45286;-71
2022/10/30 08:36:52;;;;;;;;;16.33;13.67;;;;;19.36;58.09;101229.69;4977730;28;45738;-74
2022/10/30 08:39:17;;;;;;;;;14.33;11.00;;;;;19.20;58.20;101195.69;4976363;28;45545;-70
2022/10/30 08:41:43;;;;;;;;;12.33;11.00;;;;;19.42;58.51;101216.28;4977144;28;45548;-72
2022/10/30 08:44:09;;;;;;;;;12.67;11.00;;;;;18.63;57.21;101050.16;4978677;28;45274;-73
2022/10/30 08:46:34;;;;;;;;;12.33;12.00;;;;;19.54;57.13;101213.94;4978166;28;45512;-75
2022/10/30 08:49:00;;;;;;;;;13.00;12.33;;;;;19.51;57.39;101213.47;4976314;28;46323;-70
2022/10/30 08:51:25;;;;;;;;;14.67;12.67;;;;;19.44;57.21;101210.72;4978415;28;45476;-72
2022/10/30 08:53:51;;;;;;;;;16.00;13.33;;;;;19.27;58.06;101188.53;4993662;28;45607;-72
2022/10/30 08:56:17;;;;;;;;;14.67;12.67;;;;;18.93;57.15;101126.34;4979427;28;45599;-72
2022/10/30 08:58:42;;;;;;;;;13.67;10.33;;;;;19.30;57.69;101173.84;4980606;28;45556;-72
2022/10/30 09:01:08;;;;;;;;;15.33;12.33;;;;;19.69;56.76;101206.63;4996083;28;45496;-73
2022/10/30 09:03:33;;;;;;;;;12.00;10.00;;;;;19.69;56.56;101176.97;4980339;28;45381;-72
2022/10/30 09:06:00;;;;;;;;;11.67;10.00;;;;;19.10;56.37;101085.50;4977560;28;45508;-77
2022/10/30 09:08:25;;;;;;;;;12.00;11.00;;;;;20.19;54.66;101196.69;4994701;28;45447;-71
2022/10/30 09:10:55;;;;;;;;;14.33;13.00;;;;;20.15;55.33;101173.00;4979095;28;45386;-71
2022/10/30 09:13:20;;;;;;;;;15.33;12.33;;;;;19.89;54.62;101130.44;4979018;28;45500;-71
2022/10/30 09:15:46;;;;;;;;;11.67;11.33;;;;;20.32;54.05;101207.59;4977240;28;63084;-74
2022/10/30 09:18:11;;;;;;;;;15.00;13.67;;;;;20.36;54.01;101216.97;4994378;28;46028;-72
2022/10/30 09:20:37;;;;;;;;;15.67;15.67;;;;;20.23;54.05;101202.56;4995107;28;45634;-77
2022/10/30 09:23:02;;;;;;;;;14.00;13.00;;;;;20.33;54.42;101208.44;4980005;28;45424;-75
2022/10/30 09:25:28;;;;;;;;;14.33;11.00;;;;;20.39;53.81;101214.91;4980314;28;45595;-74
2022/10/30 09:27:53;;;;;;;;;8.67;7.33;;;;;20.56;53.50;101224.41;4995815;28;45366;-73
2022/10/30 09:30:19;;;;;;;;;12.33;11.00;;;;;20.57;53.26;101220.69;4980634;28;45300;-73
2022/10/30 09:32:44;;;;;;;;;12.33;11.33;;;;;20.70;53.21;101238.84;4980696;28;45413;-74
2022/10/30 09:35:10;;;;;;;;;12.00;10.67;;;;;20.67;53.02;101241.94;4980286;28;46091;-74
2022/10/30 09:37:36;;;;;;;;;13.67;11.67;;;;;20.77;53.13;101240.53;4979154;28;45511;-72
2022/10/30 09:40:03;;;;;;;;;11.33;11.33;;;;;20.23;52.58;101162.06;4995139;28;45492;-73
2022/10/30 09:42:47;;;;;;;;;17.33;10.33;;;;;20.58;53.11;101189.94;4980194;28;45468;-72
2022/10/30 09:45:28;;;;;;;;;14.33;10.33;;;;;20.88;52.63;101237.31;4980099;28;46190;-74
2022/10/30 09:48:15;;;;;;;;;11.67;11.00;;;;;20.95;52.25;101240.84;4980095;28;45278;-75
2022/10/30 09:51:05;;;;;;;;;12.00;10.67;;;;;20.76;51.62;101219.13;4979880;28;45698;-72
2022/10/30 09:53:42;;;;;;;;;11.33;10.67;;;;;20.92;52.09;101252.06;4979139;28;45370;-74
2022/10/30 09:56:17;;;;;;;;;16.00;13.33;;;;;20.91;52.31;101250.41;4980156;28;45639;-74
2022/10/30 09:58:59;;;;;;;;;9.67;9.67;;;;;20.92;52.34;101241.25;4980081;28;45401;-73
2022/10/30 10:01:45;;;;;;;;;9.33;8.00;;;;;20.89;52.01;101249.78;4995296;28;45572;-71
2022/10/30 10:04:34;;;;;;;;;15.00;10.00;;;;;20.85;51.66;101245.81;4995611;28;45509;-73
2022/10/30 10:07:06;;;;;;;;;10.33;7.33;;;;;20.71;51.98;101227.84;4980645;28;45429;-73
2022/10/30 10:09:34;;;;;;;;;16.00;12.33;;;;;19.82;51.43;101067.47;4981053;28;45243;-74
2022/10/30 10:12:09;;;;;;;;;11.00;10.33;;;;;20.86;51.25;101243.94;4985912;28;45334;-74
2022/10/30 10:14:39;;;;;;;;;11.67;9.67;;;;;20.81;51.26;101228.31;4981003;28;45228;-71
2022/10/30 10:17:12;;;;;;;;;7.00;7.00;;;;;20.97;51.37;101248.78;4994739;28;47600;-74
2022/10/30 10:19:44;;;;;;;;;9.67;9.67;;;;;20.99;51.79;101251.28;4979827;28;45409;-72
2022/10/30 10:22:24;;;;;;;;;11.00;9.00;;;;;20.49;50.86;101174.94;4995106;28;45430;-75
2022/10/30 10:24:52;;;;;;;;;11.67;11.00;;;;;20.67;50.89;101191.44;4981497;28;45238;-73
2022/10/30 10:27:36;;;;;;;;;9.33;8.00;;;;;20.99;50.54;101240.47;4982150;28;46661;-73
2022/10/30 10:30:19;;;;;;;;;10.33;7.33;;;;;20.44;50.86;101137.72;4981769;28;45344;-72
2022/10/30 10:32:59;;;;;;;;;5.33;5.33;;;;;20.99;50.23;101237.75;4996565;28;45355;-73
2022/10/30 10:35:36;;;;;;;;;9.67;7.00;;;;;21.04;50.31;101233.44;4980124;28;45492;-73
2022/10/30 10:38:33;;;;;;;;;9.25;7.00;;;;;21.07;49.94;101243.00;4995005;28;47587;-73
2022/10/30 10:41:01;;;;;;;;;8.33;6.00;;;;;21.10;50.32;101229.09;4979622;28;45492;-74
2022/10/30 10:43:29;;;;;;;;;7.00;7.00;;;;;21.10;50.26;101242.59;4979134;28;45447;-74
2022/10/30 10:46:09;;;;;;;;;9.00;7.33;;;;;21.15;50.17;101256.34;4978379;28;45603;-75
2022/10/30 10:48:44;;;;;;;;;9.33;8.00;;;;;21.17;50.40;101267.78;4994317;28;47497;-72
2022/10/30 10:51:16;;;;;;;;;10.75;9.75;;;;;21.17;50.69;101282.16;4979378;28;45354;-73
2022/10/30 10:53:45;;;;;;;;;9.67;7.33;;;;;21.17;50.28;101279.44;4979877;28;45467;-73
2022/10/30 10:56:12;;;;;;;;;7.67;7.67;;;;;21.04;50.02;101275.84;4980779;28;45285;-74
2022/10/30 10:59:09;;;;;;;;;8.67;7.67;;;;;21.09;50.40;101270.69;4979303;28;46510;-74
2022/10/30 11:01:38;;;;;;;;;21.00;16.00;;;;;20.57;50.14;101175.59;4979024;28;45350;-73
2022/10/30 11:04:23;;;;;;;;;14.00;11.67;;;;;21.27;50.43;101279.13;4980496;28;45202;-72
2022/10/30 11:06:52;;;;;;;;;10.00;9.00;;;;;20.50;50.15;101149.56;4994200;28;45502;-76
2022/10/30 11:09:20;;;;;;;;;11.00;9.00;;;;;21.04;49.92;101238.00;4994498;28;48244;-73
2022/10/30 11:11:46;;;;;;;;;9.67;6.00;;;;;21.17;49.99;101263.22;4979738;28;45384;-72
2022/10/30 11:14:18;;;;;;;;;14.33;10.67;;;;;21.18;50.68;101274.88;4980359;28;45255;-73
2022/10/30 11:17:11;;;;;;;;;9.00;8.67;;;;;21.31;50.88;101304.72;4979656;28;45330;-73
2022/10/30 11:19:37;;;;;;;;;11.00;7.33;;;;;21.37;50.41;101301.22;4979063;28;45478;-74